createdAt,value
2018-12-18T00:02:50.490Z,7.70
2018-12-18T00:07:52.978Z,7.70
2018-12-18T00:12:55.470Z,10.70
2018-12-18T00:17:57.901Z,4.67
2018-12-18T00:23:00.336Z,6.63
2018-12-18T00:28:02.823Z,9.43
2018-12-18T00:38:20.003Z,6.23
2018-12-18T00:43:22.445Z,6.50
2018-12-18T00:48:24.922Z,8.10
2018-12-18T00:53:27.422Z,7.73
2018-12-18T00:58:29.830Z,8.80
2018-12-18T01:03:32.234Z,8.37
2018-12-18T01:08:34.643Z,6.87
2018-12-18T01:13:37.848Z,7.23
2018-12-18T01:18:40.303Z,7.90
2018-12-18T01:23:42.742Z,8.17
2018-12-18T01:28:45.158Z,8.13
2018-12-18T01:33:47.645Z,7.80
2018-12-18T01:38:50.143Z,10.77
2018-12-18T01:43:52.559Z,9.43
2018-12-18T01:48:55.070Z,8.63
2018-12-18T01:53:57.554Z,8.70
2018-12-18T01:58:59.962Z,8.27
2018-12-18T02:04:05.906Z,7.47
2018-12-18T02:09:06.939Z,7.70
2018-12-18T02:14:09.414Z,7.60
2018-12-18T02:19:11.824Z,7.10
2018-12-18T02:24:14.262Z,5.70
2018-12-18T02:29:16.706Z,8.63
2018-12-18T02:34:19.117Z,9.20
2018-12-18T02:39:21.601Z,6.47
2018-12-18T02:44:24.022Z,6.10
2018-12-18T02:49:26.474Z,6.23
2018-12-18T02:54:29.586Z,8.40
2018-12-18T02:59:31.994Z,4.93
2018-12-18T03:04:34.410Z,8.57
2018-12-18T03:09:36.886Z,8.00
2018-12-18T03:14:39.368Z,8.17
2018-12-18T03:19:41.770Z,8.07
2018-12-18T03:24:44.184Z,7.33
2018-12-18T03:29:46.599Z,7.83
2018-12-18T03:34:49.009Z,7.03
2018-12-18T03:39:51.486Z,7.10
2018-12-18T03:44:53.894Z,7.80
2018-12-18T03:49:56.314Z,7.70
2018-12-18T03:54:58.795Z,7.63
2018-12-18T04:00:01.234Z,5.20
2018-12-18T04:05:04.686Z,8.23
2018-12-18T04:10:07.227Z,7.37
2018-12-18T04:15:09.744Z,5.53
2018-12-18T04:20:12.430Z,6.63
2018-12-18T04:25:14.914Z,7.50
2018-12-18T04:30:17.311Z,6.90
2018-12-18T04:35:19.877Z,5.57
2018-12-18T04:40:22.425Z,8.07
2018-12-18T04:45:24.827Z,7.37
2018-12-18T04:50:27.244Z,4.27
2018-12-18T05:00:27.790Z,6.50
2018-12-18T05:05:30.267Z,6.20
2018-12-18T05:10:32.718Z,5.87
2018-12-18T05:15:35.236Z,6.70
2018-12-18T05:20:37.710Z,6.07
2018-12-18T05:25:40.227Z,8.47
2018-12-18T05:30:42.654Z,6.40
2018-12-18T05:35:45.067Z,6.70
2018-12-18T05:40:47.547Z,7.70
2018-12-18T05:45:49.966Z,6.70
2018-12-18T05:50:52.417Z,4.80
2018-12-18T05:55:54.903Z,7.50
2018-12-18T06:00:57.382Z,5.70
2018-12-18T06:05:59.871Z,6.63
2018-12-18T06:11:02.330Z,5.87
2018-12-18T06:16:04.803Z,6.93
2018-12-18T06:21:07.322Z,9.80
2018-12-18T06:26:09.744Z,8.10
2018-12-18T06:31:12.257Z,7.40
2018-12-18T06:36:14.730Z,6.33
2018-12-18T06:41:17.136Z,5.03
2018-12-18T06:46:19.647Z,6.10
2018-12-18T06:51:22.121Z,6.20
2018-12-18T06:56:24.534Z,6.93
2018-12-18T07:01:26.941Z,6.60
2018-12-18T07:06:29.394Z,7.00
2018-12-18T07:11:31.806Z,7.07
2018-12-18T07:16:34.251Z,5.93
2018-12-18T07:21:36.738Z,5.70
2018-12-18T07:26:39.139Z,4.53
2018-12-18T07:31:41.561Z,5.97
2018-12-18T07:36:43.977Z,5.60
2018-12-18T07:41:46.451Z,5.50
2018-12-18T07:46:48.867Z,6.83
2018-12-18T07:51:51.303Z,7.30
2018-12-18T07:56:53.703Z,8.80
2018-12-18T08:01:56.110Z,6.67
2018-12-18T08:06:58.514Z,9.70
2018-12-18T08:12:00.929Z,8.73
2018-12-18T08:17:03.370Z,7.43
2018-12-18T08:22:05.863Z,6.03
2018-12-18T08:27:08.268Z,7.13
2018-12-18T08:32:10.779Z,7.40
2018-12-18T08:37:13.253Z,6.47
2018-12-18T08:42:15.658Z,7.43
2018-12-18T08:47:18.207Z,5.03
2018-12-18T08:52:20.610Z,5.53
2018-12-18T08:57:23.090Z,5.67
2018-12-18T09:02:25.508Z,7.50
2018-12-18T09:07:27.990Z,9.10
2018-12-18T09:12:30.462Z,6.07
2018-12-18T09:17:37.408Z,8.80
2018-12-18T09:22:39.814Z,5.37
2018-12-18T09:27:42.226Z,7.10
2018-12-18T09:32:44.636Z,6.10
2018-12-18T09:37:49.047Z,7.63
2018-12-18T09:42:56.998Z,5.90
2018-12-18T09:47:59.397Z,5.93
2018-12-18T09:53:01.810Z,5.37
2018-12-18T09:58:06.226Z,9.10
2018-12-18T10:03:08.674Z,8.17
2018-12-18T10:08:11.092Z,7.60
2018-12-18T10:13:13.503Z,7.00
2018-12-18T10:18:15.991Z,8.00
2018-12-18T10:23:18.480Z,8.13
2018-12-18T10:28:20.926Z,9.50
2018-12-18T10:33:23.338Z,7.47
2018-12-18T10:38:25.750Z,9.73
2018-12-18T10:43:28.169Z,8.57
2018-12-18T10:48:30.657Z,8.10
2018-12-18T10:53:33.242Z,7.37
2018-12-18T10:58:35.699Z,6.20
2018-12-18T11:03:38.110Z,8.57
2018-12-18T11:08:40.575Z,10.00
2018-12-18T11:13:42.980Z,9.00
2018-12-18T11:18:45.498Z,8.00
2018-12-18T11:23:47.974Z,7.20
2018-12-18T11:28:50.441Z,7.13
2018-12-18T11:33:52.881Z,7.77
2018-12-18T11:38:55.287Z,7.73
2018-12-18T11:43:57.725Z,6.73
2018-12-18T11:49:00.165Z,9.33
2018-12-18T11:54:02.570Z,6.23
2018-12-18T11:59:05.056Z,5.87
2018-12-18T12:04:07.542Z,6.30
2018-12-18T12:09:09.942Z,5.00
2018-12-18T12:14:12.346Z,3.90
2018-12-18T12:19:14.746Z,2.33
2018-12-18T12:24:17.263Z,6.47
2018-12-18T12:29:19.671Z,3.10
2018-12-18T12:34:22.080Z,4.30
2018-12-18T12:39:24.486Z,5.60
2018-12-18T12:44:26.890Z,3.70
2018-12-18T12:49:35.059Z,3.63
2018-12-18T12:54:37.463Z,2.23
2018-12-18T12:59:39.875Z,7.47
2018-12-18T13:04:42.365Z,7.40
2018-12-18T13:09:44.838Z,2.87
2018-12-18T13:14:47.243Z,5.00
2018-12-18T13:19:49.666Z,4.77
2018-12-18T13:24:52.075Z,4.93
2018-12-18T13:29:54.742Z,7.20
2018-12-18T13:34:57.381Z,1.90
2018-12-18T13:39:59.903Z,5.33
2018-12-18T13:45:02.386Z,2.20
2018-12-18T13:50:05.363Z,4.47
2018-12-18T13:55:07.808Z,4.60
2018-12-18T14:00:10.314Z,4.63
2018-12-18T14:05:13.537Z,3.67
2018-12-18T14:10:15.983Z,5.10
2018-12-18T14:15:18.488Z,4.37
2018-12-18T14:20:20.968Z,2.17
2018-12-18T14:25:23.377Z,3.80
2018-12-18T14:30:25.826Z,1.10
2018-12-18T14:35:28.418Z,6.63
2018-12-18T14:40:30.826Z,5.63
2018-12-18T14:45:33.229Z,4.17
2018-12-18T14:50:35.654Z,2.33
2018-12-18T14:55:38.156Z,5.20
2018-12-18T15:00:40.562Z,1.50
2018-12-18T15:05:43.054Z,2.93
2018-12-18T15:10:45.468Z,2.30
2018-12-18T15:15:47.946Z,3.67
2018-12-18T15:20:50.371Z,3.30
2018-12-18T15:25:52.782Z,3.30
2018-12-18T15:30:55.300Z,2.60
2018-12-18T15:35:57.963Z,4.30
2018-12-18T15:41:00.372Z,5.43
2018-12-18T15:46:03.655Z,3.83
2018-12-18T15:51:06.063Z,3.73
2018-12-18T15:56:08.471Z,4.07
2018-12-18T16:01:10.886Z,6.03
2018-12-18T16:06:13.335Z,3.40
2018-12-18T16:11:15.823Z,1.77
2018-12-18T16:16:18.337Z,2.87
2018-12-18T16:21:20.818Z,5.47
2018-12-18T16:26:23.242Z,4.77
2018-12-18T16:31:25.647Z,3.57
2018-12-18T16:36:28.098Z,4.77
2018-12-18T16:41:30.597Z,3.33
2018-12-18T16:46:33.014Z,4.80
2018-12-18T16:51:35.474Z,4.37
2018-12-18T16:56:38.030Z,3.70
2018-12-18T17:01:40.440Z,5.40
2018-12-18T17:06:42.846Z,2.60
2018-12-18T17:11:45.259Z,3.93
2018-12-18T17:16:47.723Z,4.47
2018-12-18T17:21:50.131Z,4.30
2018-12-18T17:26:52.615Z,3.30
2018-12-18T17:31:55.193Z,2.30
2018-12-18T17:36:57.583Z,3.43
2018-12-18T17:41:59.990Z,3.30
2018-12-18T17:47:02.417Z,5.40
2018-12-18T17:52:04.902Z,3.33
2018-12-18T17:57:07.346Z,3.70
2018-12-18T18:02:09.756Z,2.07
2018-12-18T18:07:12.188Z,3.87
2018-12-18T18:12:14.675Z,1.17
2018-12-18T18:17:17.081Z,1.60
2018-12-18T18:22:19.562Z,3.67
2018-12-18T18:27:22.000Z,4.10
2018-12-18T18:32:24.440Z,3.80
2018-12-18T18:37:26.910Z,4.20
2018-12-18T18:42:29.314Z,2.00
2018-12-18T18:47:31.714Z,3.63
2018-12-18T18:52:34.130Z,3.10
2018-12-18T18:57:36.624Z,1.30
2018-12-18T19:02:39.077Z,2.50
2018-12-18T19:07:41.524Z,5.40
2018-12-18T19:12:44.014Z,3.90
2018-12-18T19:17:46.414Z,0.50
2018-12-18T19:22:48.836Z,3.87
2018-12-18T19:27:51.366Z,2.77
2018-12-18T19:32:53.837Z,3.33
2018-12-18T19:38:02.999Z,0.73
2018-12-18T19:43:01.234Z,3.30
2018-12-18T19:48:03.712Z,2.67
2018-12-18T19:53:06.162Z,3.53
2018-12-18T19:58:08.608Z,1.87
2018-12-18T20:03:11.027Z,2.20
2018-12-18T20:08:13.500Z,3.47
2018-12-18T20:13:16.063Z,4.80
2018-12-18T20:18:18.539Z,3.53
2018-12-18T20:23:21.043Z,2.60
2018-12-18T20:28:23.452Z,3.70
2018-12-18T20:33:25.869Z,4.70
2018-12-18T20:38:28.326Z,4.37
2018-12-18T20:43:30.747Z,5.17
2018-12-18T20:48:33.242Z,5.10
2018-12-18T20:53:35.713Z,5.03
2018-12-18T20:58:38.151Z,1.07
2018-12-18T21:03:40.619Z,2.37
2018-12-18T21:08:43.079Z,3.10
2018-12-18T21:13:45.533Z,2.70
2018-12-18T21:18:47.947Z,2.33
2018-12-18T21:23:50.397Z,3.40
2018-12-18T21:28:52.788Z,6.53
2018-12-18T21:33:55.218Z,2.40
2018-12-18T21:38:57.628Z,4.57
2018-12-18T21:44:00.079Z,5.70
2018-12-18T21:49:02.504Z,4.90
2018-12-18T21:54:04.998Z,3.73
2018-12-18T21:59:07.442Z,2.90
2018-12-18T22:04:09.836Z,3.10
2018-12-18T22:09:12.395Z,3.63
2018-12-18T22:14:14.810Z,3.43
2018-12-18T22:19:17.285Z,4.17
2018-12-18T22:24:19.682Z,5.27
2018-12-18T22:29:22.090Z,4.03
2018-12-18T22:34:24.531Z,4.33
2018-12-18T22:39:26.935Z,5.47
2018-12-18T22:44:29.349Z,2.83
2018-12-18T22:49:31.835Z,3.57
2018-12-18T22:54:34.251Z,6.03
2018-12-18T22:59:36.690Z,5.67
2018-12-18T23:04:39.450Z,3.93
2018-12-18T23:09:41.970Z,4.30
2018-12-18T23:14:44.403Z,6.23
2018-12-18T23:19:46.819Z,5.13
2018-12-18T23:24:49.208Z,4.67
2018-12-18T23:29:51.610Z,5.00
2018-12-18T23:34:54.013Z,5.30
2018-12-18T23:39:56.500Z,5.40
2018-12-18T23:44:58.913Z,4.33
2018-12-18T23:50:01.319Z,4.37
2018-12-18T23:55:04.454Z,3.10
